createdAt,value
2019-04-03T00:10:00.905Z,4.50
2019-04-03T00:21:00.783Z,4.00
2019-04-03T00:32:00.667Z,3.70
2019-04-03T00:43:00.539Z,3.90
2019-04-03T00:54:00.414Z,3.20
2019-04-03T01:05:00.291Z,3.70
2019-04-03T01:16:02.134Z,4.40
2019-04-03T01:27:00.075Z,3.80
2019-04-03T01:37:59.946Z,3.90
2019-04-03T01:48:59.869Z,3.90
2019-04-03T01:59:59.668Z,3.30
2019-04-03T02:10:59.678Z,4.20
2019-04-03T02:21:59.421Z,4.10
2019-04-03T02:32:59.301Z,3.90
2019-04-03T02:43:59.490Z,4.20
2019-04-03T02:54:59.206Z,5.30
2019-04-03T03:06:00.732Z,4.50
2019-04-03T03:16:58.954Z,4.50
2019-04-03T03:27:58.680Z,4.70
2019-04-03T03:38:58.553Z,5.30
2019-04-03T03:49:58.426Z,3.90
2019-04-03T04:01:00.260Z,2.60
2019-04-03T04:11:58.193Z,4.20
2019-04-03T04:22:58.455Z,4.60
2019-04-03T04:33:57.929Z,4.20
2019-04-03T04:44:57.872Z,3.60
2019-04-03T04:55:57.683Z,4.20
2019-04-03T05:06:58.241Z,5.10
2019-04-03T05:17:58.265Z,3.30
2019-04-03T05:28:57.755Z,5.40
2019-04-03T05:39:57.175Z,7.10
2019-04-03T05:50:58.111Z,6.70
2019-04-03T06:01:57.945Z,5.50
2019-04-03T06:12:56.979Z,6.30
2019-04-03T06:23:56.679Z,4.50
2019-04-03T06:34:56.555Z,5.00
2019-04-03T06:45:57.629Z,4.40
2019-04-03T06:56:56.624Z,4.00
2019-04-03T07:07:56.301Z,5.80
2019-04-03T07:18:56.075Z,5.50
2019-04-03T07:29:55.983Z,4.00
2019-04-03T07:40:55.809Z,4.30
2019-04-03T07:51:55.718Z,6.70
2019-04-03T08:02:55.750Z,4.10
2019-04-03T08:13:55.780Z,4.30
2019-04-03T08:24:55.683Z,5.00
2019-04-03T08:35:55.182Z,5.50
2019-04-03T08:46:55.238Z,5.30
2019-04-03T08:57:55.153Z,5.70
2019-04-03T09:08:57.264Z,2.20
2019-04-03T09:19:56.343Z,2.10
2019-04-03T09:30:54.573Z,2.30
2019-04-03T09:41:54.445Z,2.30
2019-04-03T09:52:55.343Z,3.10
2019-04-03T10:03:55.646Z,2.80
2019-04-03T10:14:54.063Z,3.60
2019-04-03T10:25:53.940Z,3.30
2019-04-03T10:36:53.831Z,1.90
2019-04-03T10:47:56.612Z,2.10
2019-04-03T10:58:53.566Z,2.00
2019-04-03T11:09:53.439Z,3.60
2019-04-03T11:20:53.316Z,4.30
2019-04-03T11:31:53.376Z,3.50
2019-04-03T11:42:53.350Z,3.60
2019-04-03T11:53:53.320Z,3.20
2019-04-03T12:04:52.820Z,4.90
2019-04-03T12:15:53.712Z,4.20
2019-04-03T12:26:55.423Z,5.20
2019-04-03T12:37:52.440Z,3.90
2019-04-03T12:48:52.324Z,4.40
2019-04-03T12:59:52.249Z,3.80
2019-04-03T13:10:52.347Z,3.60
2019-04-03T13:21:51.936Z,2.90
2019-04-03T13:32:58.987Z,3.30
2019-04-03T13:43:53.919Z,4.00
2019-04-03T13:54:51.583Z,3.50
2019-04-03T14:05:51.447Z,4.10
2019-04-03T14:16:51.427Z,3.70
2019-04-03T14:27:51.197Z,4.50
2019-04-03T14:38:51.362Z,2.40
2019-04-03T14:49:50.942Z,2.00
2019-04-03T15:00:50.821Z,2.10
2019-04-03T15:11:50.696Z,1.80
2019-04-03T15:22:50.638Z,1.10
2019-04-03T15:33:50.456Z,1.40
2019-04-03T15:44:52.060Z,1.20
2019-04-03T15:55:50.200Z,1.60
2019-04-03T16:06:50.069Z,1.80
2019-04-03T16:17:49.956Z,1.70
2019-04-03T16:28:49.826Z,3.60
2019-04-03T16:39:49.708Z,2.00
2019-04-03T16:50:49.993Z,1.10
2019-04-03T17:01:49.454Z,1.20
2019-04-03T17:12:50.083Z,1.40
2019-04-03T17:23:49.212Z,1.50
2019-04-03T17:34:49.079Z,1.50
2019-04-03T17:45:48.950Z,2.20
2019-04-03T17:56:48.823Z,1.70
2019-04-03T18:07:48.712Z,1.30
2019-04-03T18:18:49.982Z,1.50
2019-04-03T18:29:48.453Z,1.80
2019-04-03T18:40:48.323Z,1.90
2019-04-03T18:51:48.198Z,2.20
2019-04-03T19:02:48.104Z,2.80
2019-04-03T19:13:49.466Z,2.00
2019-04-03T19:24:48.827Z,3.00
2019-04-03T19:35:47.709Z,4.10
2019-04-03T19:46:47.581Z,1.60
2019-04-03T19:57:47.457Z,2.10
2019-04-03T20:08:47.357Z,2.00
2019-04-03T20:19:47.234Z,4.30
2019-04-03T20:30:47.097Z,2.10
2019-04-03T20:41:46.981Z,1.70
2019-04-03T20:52:46.978Z,2.40
2019-04-03T21:03:46.719Z,1.70
2019-04-03T21:14:47.600Z,2.90
2019-04-03T21:25:46.474Z,3.20
2019-04-03T21:36:46.362Z,3.90
2019-04-03T21:47:46.240Z,3.10
2019-04-03T21:58:46.102Z,4.10
2019-04-03T22:09:45.999Z,3.80
2019-04-03T22:20:45.863Z,4.90
2019-04-03T22:31:45.751Z,5.80
2019-04-03T22:42:46.066Z,4.60
2019-04-03T22:53:45.488Z,6.40
2019-04-03T23:04:46.385Z,7.10
2019-04-03T23:15:45.241Z,6.10
2019-04-03T23:26:45.115Z,6.10
2019-04-03T23:37:45.032Z,6.10
2019-04-03T23:48:44.872Z,6.90
2019-04-03T23:59:44.995Z,6.70
